sensor_id;sensor_type;location;lat;lon;timestamp;temperature;humidity
14489;DHT22;7330;50.804;4.550;2023-04-03T00:06:10;5.70;99.90
14489;DHT22;7330;50.804;4.550;2023-04-03T00:08:37;5.70;99.90
14489;DHT22;7330;50.804;4.550;2023-04-03T00:11:04;5.70;99.90
14489;DHT22;7330;50.804;4.550;2023-04-03T00:15:58;5.70;99.90
14489;DHT22;7330;50.804;4.550;2023-04-03T00:18:25;5.70;99.90
14489;DHT22;7330;50.804;4.550;2023-04-03T00:20:51;5.70;99.90
14489;DHT22;7330;50.804;4.550;2023-04-03T00:28:13;5.60;99.90
14489;DHT22;7330;50.804;4.550;2023-04-03T00:30:40;5.60;99.90
14489;DHT22;7330;50.804;4.550;2023-04-03T00:33:08;5.60;99.90
14489;DHT22;7330;50.804;4.550;2023-04-03T00:35:36;5.50;99.90
14489;DHT22;7330;50.804;4.550;2023-04-03T00:38:03;5.60;99.90
14489;DHT22;7330;50.804;4.550;2023-04-03T00:45:38;5.50;99.90
14489;DHT22;7330;50.804;4.550;2023-04-03T00:50:34;5.50;99.90
14489;DHT22;7330;50.804;4.550;2023-04-03T00:53:02;5.40;99.90
14489;DHT22;7330;50.804;4.550;2023-04-03T00:55:29;5.40;99.90
14489;DHT22;7330;50.804;4.550;2023-04-03T00:57:57;5.40;99.90
14489;DHT22;7330;50.804;4.550;2023-04-03T01:00:24;5.40;99.90
14489;DHT22;7330;50.804;4.550;2023-04-03T01:02:52;5.40;99.90
14489;DHT22;7330;50.804;4.550;2023-04-03T01:07:46;5.40;99.90
14489;DHT22;7330;50.804;4.550;2023-04-03T01:10:14;5.30;99.90
14489;DHT22;7330;50.804;4.550;2023-04-03T01:12:43;5.30;99.90
14489;DHT22;7330;50.804;4.550;2023-04-03T01:17:37;5.30;99.90
14489;DHT22;7330;50.804;4.550;2023-04-03T01:20:31;5.30;99.90
14489;DHT22;7330;50.804;4.550;2023-04-03T01:23:06;5.30;99.90
14489;DHT22;7330;50.804;4.550;2023-04-03T01:25:39;5.30;99.90
14489;DHT22;7330;50.804;4.550;2023-04-03T01:28:07;5.30;99.90
14489;DHT22;7330;50.804;4.550;2023-04-03T01:33:02;5.20;99.90
14489;DHT22;7330;50.804;4.550;2023-04-03T01:35:29;5.20;99.90
14489;DHT22;7330;50.804;4.550;2023-04-03T01:40:23;5.10;99.90
14489;DHT22;7330;50.804;4.550;2023-04-03T01:45:16;5.10;99.90
14489;DHT22;7330;50.804;4.550;2023-04-03T01:47:43;5.10;99.90
14489;DHT22;7330;50.804;4.550;2023-04-03T01:50:11;5.10;99.90
14489;DHT22;7330;50.804;4.550;2023-04-03T01:55:06;5.10;99.90
14489;DHT22;7330;50.804;4.550;2023-04-03T02:02:27;5.00;99.90
14489;DHT22;7330;50.804;4.550;2023-04-03T02:07:22;4.90;99.90
14489;DHT22;7330;50.804;4.550;2023-04-03T02:12:16;5.00;99.90
14489;DHT22;7330;50.804;4.550;2023-04-03T02:14:43;4.90;99.90
14489;DHT22;7330;50.804;4.550;2023-04-03T02:17:09;5.00;99.90
14489;DHT22;7330;50.804;4.550;2023-04-03T02:19:36;4.90;99.90
14489;DHT22;7330;50.804;4.550;2023-04-03T02:22:03;4.90;99.90
14489;DHT22;7330;50.804;4.550;2023-04-03T02:36:46;4.90;99.90
14489;DHT22;7330;50.804;4.550;2023-04-03T02:39:13;4.90;99.90
14489;DHT22;7330;50.804;4.550;2023-04-03T02:41:40;4.90;99.90
14489;DHT22;7330;50.804;4.550;2023-04-03T02:44:07;4.90;99.90
14489;DHT22;7330;50.804;4.550;2023-04-03T02:46:35;4.90;99.90
14489;DHT22;7330;50.804;4.550;2023-04-03T02:51:29;4.80;99.90
14489;DHT22;7330;50.804;4.550;2023-04-03T02:53:57;4.80;99.90
14489;DHT22;7330;50.804;4.550;2023-04-03T02:56:24;4.80;99.90
14489;DHT22;7330;50.804;4.550;2023-04-03T02:58:52;4.80;99.90
14489;DHT22;7330;50.804;4.550;2023-04-03T03:03:46;4.80;99.90
14489;DHT22;7330;50.804;4.550;2023-04-03T03:06:14;4.80;99.90
14489;DHT22;7330;50.804;4.550;2023-04-03T03:13:37;4.70;99.90
14489;DHT22;7330;50.804;4.550;2023-04-03T03:18:31;4.70;99.90
14489;DHT22;7330;50.804;4.550;2023-04-03T03:20:59;4.70;99.90
14489;DHT22;7330;50.804;4.550;2023-04-03T03:25:54;4.70;99.90
14489;DHT22;7330;50.804;4.550;2023-04-03T03:28:21;4.70;99.90
14489;DHT22;7330;50.804;4.550;2023-04-03T03:30:49;4.60;99.90
14489;DHT22;7330;50.804;4.550;2023-04-03T03:33:16;4.60;99.90
14489;DHT22;7330;50.804;4.550;2023-04-03T03:35:42;4.60;99.90
14489;DHT22;7330;50.804;4.550;2023-04-03T03:38:09;4.50;99.90
14489;DHT22;7330;50.804;4.550;2023-04-03T03:40:36;4.50;99.90
14489;DHT22;7330;50.804;4.550;2023-04-03T03:47:59;4.40;99.90
14489;DHT22;7330;50.804;4.550;2023-04-03T03:50:25;4.40;99.90
14489;DHT22;7330;50.804;4.550;2023-04-03T03:57:46;4.30;99.90
14489;DHT22;7330;50.804;4.550;2023-04-03T04:02:40;4.20;99.90
14489;DHT22;7330;50.804;4.550;2023-04-03T04:05:08;4.20;99.90
14489;DHT22;7330;50.804;4.550;2023-04-03T04:07:35;4.20;99.90
14489;DHT22;7330;50.804;4.550;2023-04-03T04:10:02;4.10;99.90
14489;DHT22;7330;50.804;4.550;2023-04-03T04:12:28;4.10;99.90
14489;DHT22;7330;50.804;4.550;2023-04-03T04:14:55;4.00;99.90
14489;DHT22;7330;50.804;4.550;2023-04-03T04:17:22;4.00;99.90
14489;DHT22;7330;50.804;4.550;2023-04-03T04:22:17;4.00;99.90
14489;DHT22;7330;50.804;4.550;2023-04-03T04:24:44;3.90;99.90
14489;DHT22;7330;50.804;4.550;2023-04-03T04:27:11;3.90;99.90
14489;DHT22;7330;50.804;4.550;2023-04-03T04:29:37;3.90;99.90
14489;DHT22;7330;50.804;4.550;2023-04-03T04:32:04;3.90;99.90
14489;DHT22;7330;50.804;4.550;2023-04-03T04:41:53;3.90;99.90
14489;DHT22;7330;50.804;4.550;2023-04-03T04:46:47;3.80;99.90
14489;DHT22;7330;50.804;4.550;2023-04-03T04:49:14;3.80;99.90
14489;DHT22;7330;50.804;4.550;2023-04-03T04:54:08;3.80;99.90
14489;DHT22;7330;50.804;4.550;2023-04-03T05:01:30;3.90;99.90
14489;DHT22;7330;50.804;4.550;2023-04-03T05:08:50;3.90;99.90
14489;DHT22;7330;50.804;4.550;2023-04-03T05:13:45;3.90;99.90
14489;DHT22;7330;50.804;4.550;2023-04-03T05:21:07;3.80;99.90
14489;DHT22;7330;50.804;4.550;2023-04-03T05:23:34;3.80;99.90
14489;DHT22;7330;50.804;4.550;2023-04-03T05:26:01;3.80;99.90
14489;DHT22;7330;50.804;4.550;2023-04-03T05:30:56;3.80;99.90
14489;DHT22;7330;50.804;4.550;2023-04-03T05:33:25;3.70;99.90
14489;DHT22;7330;50.804;4.550;2023-04-03T05:35:51;3.80;99.90
14489;DHT22;7330;50.804;4.550;2023-04-03T05:40:47;3.80;99.90
14489;DHT22;7330;50.804;4.550;2023-04-03T05:48:08;4.00;99.90
14489;DHT22;7330;50.804;4.550;2023-04-03T05:53:06;4.20;99.90
14489;DHT22;7330;50.804;4.550;2023-04-03T06:02:56;4.90;99.90
14489;DHT22;7330;50.804;4.550;2023-04-03T06:10:17;5.70;99.90
14489;DHT22;7330;50.804;4.550;2023-04-03T06:15:13;6.10;99.90
14489;DHT22;7330;50.804;4.550;2023-04-03T06:17:41;6.30;99.90
14489;DHT22;7330;50.804;4.550;2023-04-03T06:20:09;6.60;99.90
14489;DHT22;7330;50.804;4.550;2023-04-03T06:22:36;6.80;99.90
14489;DHT22;7330;50.804;4.550;2023-04-03T06:25:04;7.00;99.90
14489;DHT22;7330;50.804;4.550;2023-04-03T06:34:52;7.70;99.90
14489;DHT22;7330;50.804;4.550;2023-04-03T06:39:49;7.90;99.90
14489;DHT22;7330;50.804;4.550;2023-04-03T06:49:37;8.40;99.90
14489;DHT22;7330;50.804;4.550;2023-04-03T06:52:03;8.60;99.90
14489;DHT22;7330;50.804;4.550;2023-04-03T06:54:31;8.70;99.90
14489;DHT22;7330;50.804;4.550;2023-04-03T06:56:59;8.90;99.90
14489;DHT22;7330;50.804;4.550;2023-04-03T06:59:26;9.00;99.90
14489;DHT22;7330;50.804;4.550;2023-04-03T07:01:52;9.20;99.90
14489;DHT22;7330;50.804;4.550;2023-04-03T07:09:13;9.70;99.90
14489;DHT22;7330;50.804;4.550;2023-04-03T07:11:40;9.90;99.90
14489;DHT22;7330;50.804;4.550;2023-04-03T07:14:08;10.10;99.90
14489;DHT22;7330;50.804;4.550;2023-04-03T07:16:35;10.20;99.90
14489;DHT22;7330;50.804;4.550;2023-04-03T07:21:29;10.50;99.90
14489;DHT22;7330;50.804;4.550;2023-04-03T07:28:50;11.00;99.90
14489;DHT22;7330;50.804;4.550;2023-04-03T07:31:19;11.10;99.90
14489;DHT22;7330;50.804;4.550;2023-04-03T07:33:45;11.30;99.90
14489;DHT22;7330;50.804;4.550;2023-04-03T07:36:14;11.40;99.90
14489;DHT22;7330;50.804;4.550;2023-04-03T07:41:10;11.40;98.30
14489;DHT22;7330;50.804;4.550;2023-04-03T07:43:37;11.40;98.00
14489;DHT22;7330;50.804;4.550;2023-04-03T07:48:33;11.40;98.60
14489;DHT22;7330;50.804;4.550;2023-04-03T07:53:27;11.60;96.90
14489;DHT22;7330;50.804;4.550;2023-04-03T07:55:54;11.70;97.20
14489;DHT22;7330;50.804;4.550;2023-04-03T08:03:16;11.90;95.00
14489;DHT22;7330;50.804;4.550;2023-04-03T08:10:38;12.40;94.50
14489;DHT22;7330;50.804;4.550;2023-04-03T08:13:05;12.60;95.50
14489;DHT22;7330;50.804;4.550;2023-04-03T08:15:32;12.70;95.70
14489;DHT22;7330;50.804;4.550;2023-04-03T08:17:59;12.90;95.20
14489;DHT22;7330;50.804;4.550;2023-04-03T08:20:26;13.10;95.10
14489;DHT22;7330;50.804;4.550;2023-04-03T08:32:42;13.60;91.90
14489;DHT22;7330;50.804;4.550;2023-04-03T08:37:37;13.50;90.70
14489;DHT22;7330;50.804;4.550;2023-04-03T08:44:58;13.70;91.10
14489;DHT22;7330;50.804;4.550;2023-04-03T08:47:28;13.60;90.50
14489;DHT22;7330;50.804;4.550;2023-04-03T08:49:57;13.60;90.30
14489;DHT22;7330;50.804;4.550;2023-04-03T08:52:32;13.60;90.60
14489;DHT22;7330;50.804;4.550;2023-04-03T08:59:56;13.40;89.10
14489;DHT22;7330;50.804;4.550;2023-04-03T09:04:51;13.30;90.20
14489;DHT22;7330;50.804;4.550;2023-04-03T09:12:17;12.90;87.30
14489;DHT22;7330;50.804;4.550;2023-04-03T09:17:19;12.80;89.20
14489;DHT22;7330;50.804;4.550;2023-04-03T09:24:41;12.50;88.40
14489;DHT22;7330;50.804;4.550;2023-04-03T09:27:09;12.50;89.20
14489;DHT22;7330;50.804;4.550;2023-04-03T09:29:39;12.50;86.90
14489;DHT22;7330;50.804;4.550;2023-04-03T09:32:17;12.50;85.90
14489;DHT22;7330;50.804;4.550;2023-04-03T09:34:44;12.40;86.70
14489;DHT22;7330;50.804;4.550;2023-04-03T09:39:48;12.40;86.30
14489;DHT22;7330;50.804;4.550;2023-04-03T09:49:38;12.40;84.00
14489;DHT22;7330;50.804;4.550;2023-04-03T09:57:01;12.60;82.50
14489;DHT22;7330;50.804;4.550;2023-04-03T10:01:58;12.70;84.20
14489;DHT22;7330;50.804;4.550;2023-04-03T10:04:25;12.80;86.60
14489;DHT22;7330;50.804;4.550;2023-04-03T10:14:16;13.20;86.00
14489;DHT22;7330;50.804;4.550;2023-04-03T10:19:17;13.40;84.10
14489;DHT22;7330;50.804;4.550;2023-04-03T10:41:28;14.00;78.50
14489;DHT22;7330;50.804;4.550;2023-04-03T10:43:59;14.00;76.50
14489;DHT22;7330;50.804;4.550;2023-04-03T10:46:33;14.10;75.70
14489;DHT22;7330;50.804;4.550;2023-04-03T10:53:56;13.90;73.30
14489;DHT22;7330;50.804;4.550;2023-04-03T10:56:27;13.90;71.80
14489;DHT22;7330;50.804;4.550;2023-04-03T11:03:53;13.90;76.10
14489;DHT22;7330;50.804;4.550;2023-04-03T11:06:22;13.80;75.50
14489;DHT22;7330;50.804;4.550;2023-04-03T11:13:45;13.80;74.10
14489;DHT22;7330;50.804;4.550;2023-04-03T11:18:43;13.70;74.10
14489;DHT22;7330;50.804;4.550;2023-04-03T11:23:40;13.60;71.60
14489;DHT22;7330;50.804;4.550;2023-04-03T11:28:35;13.40;68.90
14489;DHT22;7330;50.804;4.550;2023-04-03T11:31:05;13.30;68.90
14489;DHT22;7330;50.804;4.550;2023-04-03T11:36:03;13.10;64.00
14489;DHT22;7330;50.804;4.550;2023-04-03T11:38:32;13.00;67.40
14489;DHT22;7330;50.804;4.550;2023-04-03T11:41:03;13.00;68.90
14489;DHT22;7330;50.804;4.550;2023-04-03T11:45:58;12.90;70.40
14489;DHT22;7330;50.804;4.550;2023-04-03T11:58:17;12.50;68.40
14489;DHT22;7330;50.804;4.550;2023-04-03T12:00:55;12.40;68.30
14489;DHT22;7330;50.804;4.550;2023-04-03T12:05:49;12.40;67.30
14489;DHT22;7330;50.804;4.550;2023-04-03T12:10:50;12.30;65.70
14489;DHT22;7330;50.804;4.550;2023-04-03T12:16:06;12.30;68.20
14489;DHT22;7330;50.804;4.550;2023-04-03T12:25:59;12.20;67.20
14489;DHT22;7330;50.804;4.550;2023-04-03T12:30:55;12.10;63.70
14489;DHT22;7330;50.804;4.550;2023-04-03T12:33:26;12.10;63.70
14489;DHT22;7330;50.804;4.550;2023-04-03T12:35:57;12.00;63.90
14489;DHT22;7330;50.804;4.550;2023-04-03T12:48:18;11.90;60.50
14489;DHT22;7330;50.804;4.550;2023-04-03T12:50:48;11.90;60.20
14489;DHT22;7330;50.804;4.550;2023-04-03T12:55:42;11.90;61.20
14489;DHT22;7330;50.804;4.550;2023-04-03T13:00:37;11.90;59.80
14489;DHT22;7330;50.804;4.550;2023-04-03T13:05:32;11.90;59.90
14489;DHT22;7330;50.804;4.550;2023-04-03T13:08:01;11.90;58.30
14489;DHT22;7330;50.804;4.550;2023-04-03T13:10:29;11.90;58.60
14489;DHT22;7330;50.804;4.550;2023-04-03T13:12:57;11.80;57.50
14489;DHT22;7330;50.804;4.550;2023-04-03T13:17:52;11.90;57.70
14489;DHT22;7330;50.804;4.550;2023-04-03T13:22:50;11.90;58.10
14489;DHT22;7330;50.804;4.550;2023-04-03T13:40:16;11.90;56.20
14489;DHT22;7330;50.804;4.550;2023-04-03T13:42:43;11.90;56.80
14489;DHT22;7330;50.804;4.550;2023-04-03T13:47:38;11.90;58.00
14489;DHT22;7330;50.804;4.550;2023-04-03T13:50:13;11.90;56.80
14489;DHT22;7330;50.804;4.550;2023-04-03T14:04:57;11.90;59.90
14489;DHT22;7330;50.804;4.550;2023-04-03T14:07:27;11.90;59.00
14489;DHT22;7330;50.804;4.550;2023-04-03T14:12:24;11.90;59.30
14489;DHT22;7330;50.804;4.550;2023-04-03T14:19:46;11.90;57.90
14489;DHT22;7330;50.804;4.550;2023-04-03T14:29:36;11.90;57.30
14489;DHT22;7330;50.804;4.550;2023-04-03T14:36:57;11.80;57.20
14489;DHT22;7330;50.804;4.550;2023-04-03T14:41:52;11.80;56.90
14489;DHT22;7330;50.804;4.550;2023-04-03T14:46:48;11.80;56.60
14489;DHT22;7330;50.804;4.550;2023-04-03T14:49:18;11.80;58.30
14489;DHT22;7330;50.804;4.550;2023-04-03T14:51:45;11.80;57.70
14489;DHT22;7330;50.804;4.550;2023-04-03T15:01:33;11.80;56.00
14489;DHT22;7330;50.804;4.550;2023-04-03T15:08:55;11.80;57.50
14489;DHT22;7330;50.804;4.550;2023-04-03T15:11:22;11.80;58.20
14489;DHT22;7330;50.804;4.550;2023-04-03T15:21:10;11.80;59.30
14489;DHT22;7330;50.804;4.550;2023-04-03T15:26:05;11.70;59.10
14489;DHT22;7330;50.804;4.550;2023-04-03T15:33:26;11.70;59.50
14489;DHT22;7330;50.804;4.550;2023-04-03T15:35:53;11.80;60.00
14489;DHT22;7330;50.804;4.550;2023-04-03T15:43:15;11.70;58.10
14489;DHT22;7330;50.804;4.550;2023-04-03T15:50:36;11.70;59.10
14489;DHT22;7330;50.804;4.550;2023-04-03T15:55:30;11.70;59.10
14489;DHT22;7330;50.804;4.550;2023-04-03T16:00:26;11.70;59.90
14489;DHT22;7330;50.804;4.550;2023-04-03T16:12:41;11.60;61.00
14489;DHT22;7330;50.804;4.550;2023-04-03T16:15:08;11.50;60.70
14489;DHT22;7330;50.804;4.550;2023-04-03T16:17:37;11.50;60.70
14489;DHT22;7330;50.804;4.550;2023-04-03T16:29:53;11.50;61.60
14489;DHT22;7330;50.804;4.550;2023-04-03T16:34:48;11.40;62.10
14489;DHT22;7330;50.804;4.550;2023-04-03T16:49:37;11.30;63.20
14489;DHT22;7330;50.804;4.550;2023-04-03T16:54:34;11.30;62.50
14489;DHT22;7330;50.804;4.550;2023-04-03T17:04:25;11.20;63.80
14489;DHT22;7330;50.804;4.550;2023-04-03T17:09:19;11.10;63.60
14489;DHT22;7330;50.804;4.550;2023-04-03T17:19:10;11.10;63.90
14489;DHT22;7330;50.804;4.550;2023-04-03T17:29:01;10.90;63.00
14489;DHT22;7330;50.804;4.550;2023-04-03T17:33:55;10.80;63.40
14489;DHT22;7330;50.804;4.550;2023-04-03T17:36:23;10.80;62.30
14489;DHT22;7330;50.804;4.550;2023-04-03T17:38:50;10.80;63.10
14489;DHT22;7330;50.804;4.550;2023-04-03T17:41:17;10.70;63.30
14489;DHT22;7330;50.804;4.550;2023-04-03T17:43:44;10.70;63.90
14489;DHT22;7330;50.804;4.550;2023-04-03T17:46:11;10.70;63.80
14489;DHT22;7330;50.804;4.550;2023-04-03T17:51:06;10.60;63.80
14489;DHT22;7330;50.804;4.550;2023-04-03T17:53:34;10.50;63.00
14489;DHT22;7330;50.804;4.550;2023-04-03T18:01:06;10.50;64.60
14489;DHT22;7330;50.804;4.550;2023-04-03T18:08:49;10.30;64.30
14489;DHT22;7330;50.804;4.550;2023-04-03T18:11:17;10.20;64.40
14489;DHT22;7330;50.804;4.550;2023-04-03T18:13:44;10.20;64.70
14489;DHT22;7330;50.804;4.550;2023-04-03T18:16:11;10.20;64.80
14489;DHT22;7330;50.804;4.550;2023-04-03T18:21:05;10.00;64.60
14489;DHT22;7330;50.804;4.550;2023-04-03T18:23:34;10.00;64.90
14489;DHT22;7330;50.804;4.550;2023-04-03T18:26:02;9.90;66.60
14489;DHT22;7330;50.804;4.550;2023-04-03T18:28:29;9.90;66.80
14489;DHT22;7330;50.804;4.550;2023-04-03T18:30:57;9.90;66.80
14489;DHT22;7330;50.804;4.550;2023-04-03T18:33:24;9.80;66.70
14489;DHT22;7330;50.804;4.550;2023-04-03T18:43:15;9.70;67.20
14489;DHT22;7330;50.804;4.550;2023-04-03T18:45:42;9.70;67.40
14489;DHT22;7330;50.804;4.550;2023-04-03T18:55:39;9.40;67.30
14489;DHT22;7330;50.804;4.550;2023-04-03T19:07:59;9.20;68.20
14489;DHT22;7330;50.804;4.550;2023-04-03T19:10:26;9.20;67.80
14489;DHT22;7330;50.804;4.550;2023-04-03T19:18:23;9.00;68.50
14489;DHT22;7330;50.804;4.550;2023-04-03T19:30:48;8.80;68.80
14489;DHT22;7330;50.804;4.550;2023-04-03T19:33:15;8.80;68.90
14489;DHT22;7330;50.804;4.550;2023-04-03T19:35:42;8.70;68.90
14489;DHT22;7330;50.804;4.550;2023-04-03T19:40:51;8.70;69.50
14489;DHT22;7330;50.804;4.550;2023-04-03T19:51:28;8.50;70.00
14489;DHT22;7330;50.804;4.550;2023-04-03T19:59:26;8.50;69.50
14489;DHT22;7330;50.804;4.550;2023-04-03T20:01:56;8.40;69.60
14489;DHT22;7330;50.804;4.550;2023-04-03T20:04:22;8.40;69.80
14489;DHT22;7330;50.804;4.550;2023-04-03T20:09:27;8.40;70.30
14489;DHT22;7330;50.804;4.550;2023-04-03T20:32:34;8.00;71.20
14489;DHT22;7330;50.804;4.550;2023-04-03T20:40:13;8.00;72.00
14489;DHT22;7330;50.804;4.550;2023-04-03T20:42:40;8.00;72.00
14489;DHT22;7330;50.804;4.550;2023-04-03T20:48:24;8.00;72.30
14489;DHT22;7330;50.804;4.550;2023-04-03T20:56:04;7.90;73.10
14489;DHT22;7330;50.804;4.550;2023-04-03T21:22:35;7.50;75.70
14489;DHT22;7330;50.804;4.550;2023-04-03T21:33:07;7.30;76.00
14489;DHT22;7330;50.804;4.550;2023-04-03T21:38:26;7.20;76.50
14489;DHT22;7330;50.804;4.550;2023-04-03T21:41:10;7.10;76.40
14489;DHT22;7330;50.804;4.550;2023-04-03T21:57:14;6.90;77.90
14489;DHT22;7330;50.804;4.550;2023-04-03T22:05:13;6.90;78.30
14489;DHT22;7330;50.804;4.550;2023-04-03T22:20:58;6.70;79.50
14489;DHT22;7330;50.804;4.550;2023-04-03T22:29:13;6.60;79.70
14489;DHT22;7330;50.804;4.550;2023-04-03T22:34:34;6.50;79.80
14489;DHT22;7330;50.804;4.550;2023-04-03T22:37:21;6.50;79.90
14489;DHT22;7330;50.804;4.550;2023-04-03T22:42:48;6.40;80.00
14489;DHT22;7330;50.804;4.550;2023-04-03T22:45:15;6.40;79.70
14489;DHT22;7330;50.804;4.550;2023-04-03T22:56:10;6.30;79.00
14489;DHT22;7330;50.804;4.550;2023-04-03T23:04:28;6.30;79.20
14489;DHT22;7330;50.804;4.550;2023-04-03T23:17:40;6.30;79.50
14489;DHT22;7330;50.804;4.550;2023-04-03T23:25:52;6.20;80.00
14489;DHT22;7330;50.804;4.550;2023-04-03T23:35:59;6.10;80.40
14489;DHT22;7330;50.804;4.550;2023-04-03T23:46:22;6.00;80.80
14489;DHT22;7330;50.804;4.550;2023-04-03T23:57:09;6.00;81.10
